createdAt,value
2023-04-06T00:02:01.005Z,4.00
2023-04-06T00:04:28.224Z,5.27
2023-04-06T00:06:55.476Z,4.53
2023-04-06T00:09:22.646Z,6.43
2023-04-06T00:11:49.820Z,4.70
2023-04-06T00:14:18.394Z,5.43
2023-04-06T00:16:45.673Z,5.27
2023-04-06T00:19:12.860Z,5.33
2023-04-06T00:21:40.289Z,4.27
2023-04-06T00:24:07.635Z,5.13
2023-04-06T00:26:34.792Z,5.50
2023-04-06T00:29:02.075Z,4.67
2023-04-06T00:31:29.442Z,4.17
2023-04-06T00:33:56.950Z,5.20
2023-04-06T00:36:24.331Z,4.33
2023-04-06T00:38:51.828Z,4.77
2023-04-06T00:41:19.650Z,4.33
2023-04-06T00:43:46.825Z,4.70
2023-04-06T00:46:14.031Z,4.57
2023-04-06T00:48:41.870Z,3.70
2023-04-06T00:51:09.051Z,4.93
2023-04-06T00:53:36.317Z,3.77
2023-04-06T00:56:03.565Z,3.67
2023-04-06T00:58:30.788Z,4.50
2023-04-06T01:00:57.973Z,3.53
2023-04-06T01:03:25.493Z,4.63
2023-04-06T01:05:56.736Z,3.27
2023-04-06T01:08:23.950Z,3.27
2023-04-06T01:10:51.409Z,5.03
2023-04-06T01:13:18.636Z,4.90
2023-04-06T01:15:45.880Z,4.90
2023-04-06T01:18:13.098Z,3.87
2023-04-06T01:20:40.258Z,3.63
2023-04-06T01:23:07.464Z,3.37
2023-04-06T01:25:34.927Z,4.80
2023-04-06T01:28:02.160Z,3.90
2023-04-06T01:30:29.438Z,3.37
2023-04-06T01:32:56.897Z,3.77
2023-04-06T01:35:24.315Z,3.33
2023-04-06T01:37:51.565Z,4.67
2023-04-06T01:40:18.741Z,4.33
2023-04-06T01:42:46.308Z,5.53
2023-04-06T01:45:13.718Z,4.30
2023-04-06T01:47:41.326Z,4.60
2023-04-06T01:50:08.654Z,4.10
2023-04-06T01:52:35.814Z,4.93
2023-04-06T01:55:03.036Z,4.30
2023-04-06T01:57:30.584Z,3.83
2023-04-06T01:59:57.721Z,4.57
2023-04-06T02:02:24.971Z,3.73
2023-04-06T02:04:52.169Z,4.37
2023-04-06T02:07:19.387Z,3.77
2023-04-06T02:09:46.557Z,4.53
2023-04-06T02:12:13.715Z,4.47
2023-04-06T02:14:41.343Z,3.80
2023-04-06T02:17:08.484Z,4.60
2023-04-06T02:19:35.675Z,4.20
2023-04-06T02:22:02.846Z,4.57
2023-04-06T02:24:30.037Z,3.77
2023-04-06T02:26:57.197Z,3.97
2023-04-06T02:29:32.780Z,3.50
2023-04-06T02:32:00.021Z,4.20
2023-04-06T02:34:27.347Z,4.37
2023-04-06T02:36:54.505Z,4.10
2023-04-06T02:39:21.697Z,4.13
2023-04-06T02:41:48.890Z,5.60
2023-04-06T02:44:16.082Z,4.17
2023-04-06T02:46:43.353Z,4.73
2023-04-06T02:49:10.663Z,6.67
2023-04-06T02:51:37.961Z,3.90
2023-04-06T02:54:05.211Z,4.77
2023-04-06T02:56:32.443Z,4.80
2023-04-06T02:58:59.605Z,3.70
2023-04-06T03:01:27.812Z,3.73
2023-04-06T03:03:55.045Z,5.20
2023-04-06T03:06:22.203Z,5.07
2023-04-06T03:08:49.460Z,4.43
2023-04-06T03:11:16.653Z,3.83
2023-04-06T03:13:43.805Z,4.73
2023-04-06T03:16:11.003Z,3.70
2023-04-06T03:18:38.320Z,4.60
2023-04-06T03:21:05.606Z,4.33
2023-04-06T03:23:32.758Z,5.03
2023-04-06T03:25:59.960Z,4.47
2023-04-06T03:28:27.149Z,5.53
2023-04-06T03:30:54.402Z,4.33
2023-04-06T03:33:21.797Z,5.17
2023-04-06T03:35:48.968Z,4.83
2023-04-06T03:38:16.258Z,4.83
2023-04-06T03:40:43.705Z,4.50
2023-04-06T03:43:10.854Z,3.63
2023-04-06T03:45:38.051Z,4.30
2023-04-06T03:48:05.589Z,3.87
2023-04-06T03:50:32.931Z,4.90
2023-04-06T03:53:00.219Z,3.90
2023-04-06T03:55:27.374Z,4.67
2023-04-06T03:57:54.589Z,4.57
2023-04-06T04:00:21.832Z,5.60
2023-04-06T04:02:49.112Z,4.27
2023-04-06T04:05:16.429Z,6.20
2023-04-06T04:07:43.609Z,4.80
2023-04-06T04:10:11.230Z,5.33
2023-04-06T04:12:38.383Z,4.73
2023-04-06T04:15:05.969Z,4.90
2023-04-06T04:17:33.187Z,5.30
2023-04-06T04:20:00.406Z,4.13
2023-04-06T04:22:28.827Z,5.30
2023-04-06T04:24:56.032Z,5.33
2023-04-06T04:27:23.426Z,4.70
2023-04-06T04:29:51.601Z,5.10
2023-04-06T04:32:20.811Z,5.03
2023-04-06T04:34:48.862Z,3.93
2023-04-06T04:37:16.035Z,4.73
2023-04-06T04:39:43.273Z,4.03
2023-04-06T04:42:10.488Z,4.87
2023-04-06T04:44:37.691Z,4.83
2023-04-06T04:47:04.898Z,4.40
2023-04-06T04:49:32.079Z,5.10
2023-04-06T04:51:59.270Z,5.67
2023-04-06T04:54:26.620Z,5.60
2023-04-06T04:56:53.803Z,3.83
2023-04-06T04:59:21.112Z,5.30
2023-04-06T05:01:54.921Z,4.73
2023-04-06T05:04:24.065Z,6.03
2023-04-06T05:06:51.493Z,5.20
2023-04-06T05:09:18.784Z,4.43
2023-04-06T05:11:46.020Z,4.90
2023-04-06T05:14:13.212Z,5.03
2023-04-06T05:16:40.374Z,4.80
2023-04-06T05:19:07.991Z,5.90
2023-04-06T05:21:35.679Z,5.70
2023-04-06T05:24:03.519Z,5.23
2023-04-06T05:26:30.715Z,5.87
2023-04-06T05:28:57.915Z,4.17
2023-04-06T05:31:25.568Z,5.80
2023-04-06T05:33:52.869Z,3.90
2023-04-06T05:36:20.342Z,4.63
2023-04-06T05:38:47.990Z,5.03
2023-04-06T05:41:15.206Z,4.60
2023-04-06T05:43:42.403Z,5.53
2023-04-06T05:46:09.642Z,5.03
2023-04-06T05:48:37.005Z,5.33
2023-04-06T05:51:07.150Z,5.03
2023-04-06T05:53:34.677Z,5.30
2023-04-06T05:56:05.524Z,5.93
2023-04-06T05:58:33.361Z,6.37
2023-04-06T06:01:04.520Z,5.03
2023-04-06T06:03:31.716Z,5.30
2023-04-06T06:06:03.655Z,5.43
2023-04-06T06:08:32.955Z,6.03
2023-04-06T06:11:00.316Z,6.00
2023-04-06T06:13:27.548Z,4.90
2023-04-06T06:15:54.802Z,6.03
2023-04-06T06:18:22.006Z,5.70
2023-04-06T06:20:49.178Z,5.97
2023-04-06T06:23:16.378Z,4.50
2023-04-06T06:25:43.546Z,4.93
2023-04-06T06:28:10.797Z,4.60
2023-04-06T06:30:37.979Z,4.80
2023-04-06T06:33:05.189Z,5.60
2023-04-06T06:35:32.401Z,5.53
2023-04-06T06:37:59.577Z,3.93
2023-04-06T06:40:27.976Z,4.27
2023-04-06T06:42:55.254Z,5.13
2023-04-06T06:45:22.633Z,5.77
2023-04-06T06:47:50.257Z,7.10
2023-04-06T06:50:18.477Z,6.23
2023-04-06T06:52:45.726Z,5.57
2023-04-06T06:55:12.999Z,4.33
2023-04-06T06:57:40.194Z,4.03
2023-04-06T07:00:08.403Z,3.87
2023-04-06T07:02:36.816Z,5.33
2023-04-06T07:05:16.145Z,5.83
2023-04-06T07:07:51.400Z,4.57
2023-04-06T07:10:18.617Z,4.57
2023-04-06T07:12:45.963Z,3.87
2023-04-06T07:15:13.142Z,4.00
2023-04-06T07:17:42.288Z,5.17
2023-04-06T07:20:09.754Z,5.10
2023-04-06T07:22:36.912Z,4.73
2023-04-06T07:25:04.349Z,6.10
2023-04-06T07:27:31.803Z,4.90
2023-04-06T07:29:58.983Z,4.90
2023-04-06T07:32:26.170Z,3.83
2023-04-06T07:34:53.369Z,3.80
2023-04-06T07:37:20.740Z,4.60
2023-04-06T07:39:47.960Z,5.03
2023-04-06T07:42:15.380Z,5.03
2023-04-06T07:44:42.572Z,3.73
2023-04-06T07:47:09.751Z,4.07
2023-04-06T07:49:36.905Z,5.23
2023-04-06T07:52:04.512Z,3.80
2023-04-06T07:54:31.673Z,4.80
2023-04-06T07:56:58.965Z,5.00
2023-04-06T07:59:26.198Z,3.90
2023-04-06T08:01:53.391Z,5.00
2023-04-06T08:04:20.760Z,4.10
2023-04-06T08:06:47.944Z,4.30
2023-04-06T08:09:15.106Z,4.47
2023-04-06T08:11:42.428Z,4.37
2023-04-06T08:14:09.878Z,4.17
2023-04-06T08:16:37.244Z,4.97
2023-04-06T08:19:05.255Z,4.10
2023-04-06T08:21:32.403Z,5.20
2023-04-06T08:23:59.556Z,4.57
2023-04-06T08:26:27.057Z,4.20
2023-04-06T08:28:54.247Z,5.77
2023-04-06T08:31:21.551Z,5.90
2023-04-06T08:33:48.728Z,5.80
2023-04-06T08:36:17.781Z,5.27
2023-04-06T08:38:45.015Z,5.50
2023-04-06T08:41:12.950Z,5.47
2023-04-06T08:43:50.896Z,6.83
2023-04-06T08:46:18.243Z,6.10
2023-04-06T08:48:45.749Z,6.00
2023-04-06T08:51:14.010Z,5.27
2023-04-06T08:53:41.157Z,5.63
2023-04-06T08:56:08.986Z,5.03
2023-04-06T08:58:38.879Z,7.33
2023-04-06T09:01:10.273Z,5.27
2023-04-06T09:03:41.354Z,5.80
2023-04-06T09:06:09.402Z,5.10
2023-04-06T09:08:37.458Z,5.50
2023-04-06T09:11:05.020Z,5.17
2023-04-06T09:13:32.895Z,6.90
2023-04-06T09:16:02.881Z,5.60
2023-04-06T09:18:31.078Z,7.63
2023-04-06T09:20:59.188Z,7.77
2023-04-06T09:23:26.420Z,7.80
2023-04-06T09:25:53.632Z,5.93
2023-04-06T09:28:21.168Z,6.73
2023-04-06T09:30:51.485Z,6.27
2023-04-06T09:33:24.404Z,6.20
2023-04-06T09:35:51.983Z,6.43
2023-04-06T09:38:19.222Z,8.00
2023-04-06T09:41:00.722Z,6.80
2023-04-06T09:43:28.597Z,7.90
2023-04-06T09:45:57.025Z,8.23
2023-04-06T09:48:28.734Z,7.77
2023-04-06T09:51:01.065Z,7.73
2023-04-06T09:53:28.643Z,9.63
2023-04-06T09:55:59.250Z,7.10
2023-04-06T09:58:30.537Z,8.53
2023-04-06T10:01:06.843Z,9.20
2023-04-06T10:03:53.008Z,7.97
2023-04-06T10:06:22.382Z,8.07
2023-04-06T10:08:51.669Z,8.27
2023-04-06T10:11:19.893Z,8.80
2023-04-06T10:13:49.736Z,7.30
2023-04-06T10:16:17.074Z,7.43
2023-04-06T10:18:47.893Z,8.70
2023-04-06T10:21:18.512Z,8.80
2023-04-06T10:23:49.613Z,9.67
2023-04-06T10:26:17.535Z,11.27
2023-04-06T10:28:45.785Z,9.67
2023-04-06T10:31:13.449Z,9.20
2023-04-06T10:33:41.735Z,10.77
2023-04-06T10:36:15.709Z,10.33
2023-04-06T10:38:43.636Z,11.57
2023-04-06T10:41:11.748Z,10.87
2023-04-06T10:43:39.913Z,10.07
2023-04-06T10:46:08.380Z,10.93
2023-04-06T10:48:42.676Z,12.07
2023-04-06T10:51:11.585Z,10.93
2023-04-06T10:53:38.787Z,11.13
2023-04-06T10:56:06.819Z,12.57
2023-04-06T10:58:34.037Z,13.43
2023-04-06T11:01:01.490Z,12.67
2023-04-06T11:03:28.740Z,12.10
2023-04-06T11:05:56.080Z,11.90
2023-04-06T11:08:29.220Z,12.43
2023-04-06T11:11:10.000Z,11.30
2023-04-06T11:13:40.281Z,12.10
2023-04-06T11:16:07.530Z,11.80
2023-04-06T11:18:34.754Z,9.43
2023-04-06T11:21:02.005Z,10.10
2023-04-06T11:23:29.175Z,10.67
2023-04-06T11:25:56.340Z,9.67
2023-04-06T11:28:23.590Z,8.37
2023-04-06T11:30:50.933Z,9.40
2023-04-06T11:33:24.501Z,9.63
2023-04-06T11:35:51.822Z,8.53
2023-04-06T11:38:20.930Z,8.07
2023-04-06T11:40:48.124Z,9.20
2023-04-06T11:43:16.358Z,8.10
2023-04-06T11:45:44.354Z,7.87
2023-04-06T11:48:20.405Z,8.57
2023-04-06T11:50:57.206Z,7.50
2023-04-06T11:53:24.379Z,8.67
2023-04-06T11:55:51.608Z,8.57
2023-04-06T11:58:18.806Z,8.20
2023-04-06T12:00:47.525Z,6.83
2023-04-06T12:03:15.374Z,7.70
2023-04-06T12:05:42.624Z,8.00
2023-04-06T12:08:09.807Z,7.93
2023-04-06T12:10:37.037Z,8.90
2023-04-06T12:13:04.413Z,7.00
2023-04-06T12:15:31.919Z,8.10
2023-04-06T12:17:59.298Z,7.50
2023-04-06T12:20:27.638Z,6.87
2023-04-06T12:22:55.170Z,9.17
2023-04-06T12:25:22.383Z,6.77
2023-04-06T12:27:49.677Z,7.07
2023-04-06T12:30:17.096Z,7.03
2023-04-06T12:32:44.405Z,7.53
2023-04-06T12:35:12.738Z,6.37
2023-04-06T12:37:40.001Z,8.10
2023-04-06T12:40:07.438Z,6.90
2023-04-06T12:42:34.621Z,6.90
2023-04-06T12:45:01.825Z,7.47
2023-04-06T12:47:29.791Z,6.40
2023-04-06T12:49:57.473Z,5.30
2023-04-06T12:52:24.665Z,8.37
2023-04-06T12:54:52.365Z,6.60
2023-04-06T12:57:19.533Z,6.93
2023-04-06T12:59:47.264Z,6.80
2023-04-06T13:02:14.769Z,7.00
2023-04-06T13:04:42.676Z,5.40
2023-04-06T13:07:09.952Z,5.97
2023-04-06T13:09:37.124Z,5.83
2023-04-06T13:12:04.365Z,5.33
2023-04-06T13:14:32.906Z,5.33
2023-04-06T13:17:00.592Z,5.03
2023-04-06T13:19:27.922Z,7.20
2023-04-06T13:21:55.116Z,4.47
2023-04-06T13:24:22.893Z,4.93
2023-04-06T13:26:50.486Z,4.80
2023-04-06T13:29:17.690Z,5.47
2023-04-06T13:31:44.964Z,5.27
2023-04-06T13:34:12.289Z,5.47
2023-04-06T13:36:42.297Z,5.47
2023-04-06T13:39:09.725Z,5.63
2023-04-06T13:41:36.959Z,3.60
2023-04-06T13:44:04.132Z,4.33
2023-04-06T13:46:31.373Z,5.00
2023-04-06T13:48:58.536Z,3.90
2023-04-06T13:51:27.498Z,4.13
2023-04-06T13:53:54.724Z,3.37
2023-04-06T13:56:22.028Z,3.93
2023-04-06T13:58:49.165Z,4.33
2023-04-06T14:01:16.683Z,7.83
2023-04-06T14:03:46.657Z,4.73
2023-04-06T14:08:44.593Z,5.37
2023-04-06T14:11:15.175Z,4.73
2023-04-06T14:13:43.153Z,5.50
2023-04-06T14:16:10.433Z,5.77
2023-04-06T14:18:38.369Z,5.33
2023-04-06T14:21:05.608Z,4.73
2023-04-06T14:23:34.034Z,4.83
2023-04-06T14:26:08.270Z,5.87
2023-04-06T14:28:36.833Z,6.17
2023-04-06T14:31:10.808Z,6.60
2023-04-06T14:33:38.060Z,5.43
2023-04-06T14:36:05.934Z,6.70
2023-04-06T14:38:33.494Z,7.37
2023-04-06T14:41:00.717Z,6.77
2023-04-06T14:43:27.939Z,7.97
2023-04-06T14:45:55.312Z,5.50
2023-04-06T14:48:22.537Z,6.07
2023-04-06T14:50:56.840Z,6.70
2023-04-06T14:53:27.250Z,6.13
2023-04-06T14:55:54.433Z,7.83
2023-04-06T14:58:22.041Z,8.47
2023-04-06T15:00:49.570Z,6.83
2023-04-06T15:03:17.371Z,7.50
2023-04-06T15:05:44.774Z,6.20
2023-04-06T15:08:12.650Z,7.50
2023-04-06T15:10:40.068Z,7.47
2023-04-06T15:13:07.289Z,7.00
2023-04-06T15:15:34.498Z,5.40
2023-04-06T15:18:03.463Z,5.30
2023-04-06T15:20:31.438Z,6.60
2023-04-06T15:22:58.641Z,6.03
2023-04-06T15:25:25.775Z,6.47
2023-04-06T15:27:52.934Z,6.10
2023-04-06T15:30:20.356Z,8.30
2023-04-06T15:32:55.328Z,6.47
2023-04-06T15:35:22.559Z,7.37
2023-04-06T15:37:50.269Z,5.27
2023-04-06T15:40:17.459Z,6.23
2023-04-06T15:42:44.632Z,4.83
2023-04-06T15:45:12.411Z,7.23
2023-04-06T15:47:40.197Z,5.60
2023-04-06T15:50:08.321Z,6.50
2023-04-06T15:52:36.249Z,5.87
2023-04-06T15:55:07.602Z,8.13
2023-04-06T15:57:35.226Z,6.57
2023-04-06T16:00:03.434Z,4.93
2023-04-06T16:02:30.673Z,5.13
2023-04-06T16:05:02.978Z,4.87
2023-04-06T16:07:30.838Z,6.67
2023-04-06T16:09:58.120Z,4.90
2023-04-06T16:12:26.678Z,5.07
2023-04-06T16:14:55.012Z,4.17
2023-04-06T16:17:22.682Z,3.77
2023-04-06T16:19:49.947Z,6.53
2023-04-06T16:22:17.265Z,5.10
2023-04-06T16:24:44.421Z,3.90
2023-04-06T16:27:12.181Z,4.67
2023-04-06T16:29:39.341Z,4.50
2023-04-06T16:32:06.856Z,5.80
2023-04-06T16:34:34.467Z,4.80
2023-04-06T16:37:02.205Z,6.07
2023-04-06T16:39:29.475Z,5.07
2023-04-06T16:41:56.793Z,6.97
2023-04-06T16:44:24.071Z,6.77
2023-04-06T16:46:52.381Z,5.33
2023-04-06T16:49:20.742Z,6.60
2023-04-06T16:51:49.681Z,5.03
2023-04-06T16:54:17.182Z,10.43
2023-04-06T16:56:44.475Z,9.50
2023-04-06T16:59:11.856Z,7.77
2023-04-06T17:01:39.106Z,5.77
2023-04-06T17:04:06.649Z,7.83
2023-04-06T17:06:33.803Z,6.37
2023-04-06T17:09:00.939Z,6.50
2023-04-06T17:11:32.883Z,7.33
2023-04-06T17:14:06.937Z,6.03
2023-04-06T17:16:34.107Z,7.37
2023-04-06T17:19:01.305Z,6.80
2023-04-06T17:21:28.498Z,6.33
2023-04-06T17:23:55.830Z,8.07
2023-04-06T17:26:22.984Z,7.23
2023-04-06T17:28:50.308Z,8.47
2023-04-06T17:31:17.633Z,8.07
2023-04-06T17:33:45.189Z,8.60
2023-04-06T17:36:12.761Z,6.93
2023-04-06T17:38:43.752Z,6.67
2023-04-06T17:41:11.840Z,5.83
2023-04-06T17:43:38.997Z,9.13
2023-04-06T17:46:06.442Z,7.43
2023-04-06T17:48:33.660Z,7.37
2023-04-06T17:51:01.285Z,8.13
2023-04-06T17:53:32.311Z,8.40
2023-04-06T17:56:02.857Z,6.40
2023-04-06T17:58:30.322Z,6.47
2023-04-06T18:00:57.513Z,6.30
2023-04-06T18:03:24.745Z,7.33
2023-04-06T18:05:51.949Z,9.07
2023-04-06T18:08:19.107Z,5.67
2023-04-06T18:10:48.257Z,7.00
2023-04-06T18:13:15.604Z,6.87
2023-04-06T18:15:42.853Z,6.37
2023-04-06T18:18:10.248Z,6.17
2023-04-06T18:20:41.530Z,6.50
2023-04-06T18:23:08.737Z,6.50
2023-04-06T18:25:39.481Z,6.30
2023-04-06T18:28:06.921Z,7.07
2023-04-06T18:30:34.102Z,7.27
2023-04-06T18:33:01.326Z,7.60
2023-04-06T18:35:28.459Z,6.83
2023-04-06T18:37:55.714Z,27.50
2023-04-06T18:40:36.424Z,21.37
2023-04-06T18:43:04.214Z,12.10
2023-04-06T18:45:35.243Z,8.20
2023-04-06T18:48:02.885Z,8.83
2023-04-06T18:50:30.111Z,8.93
2023-04-06T18:52:57.345Z,7.73
2023-04-06T18:55:24.542Z,7.60
2023-04-06T18:57:51.693Z,7.97
2023-04-06T19:00:18.850Z,10.10
2023-04-06T19:02:46.662Z,8.13
2023-04-06T19:05:14.266Z,5.67
2023-04-06T19:07:47.974Z,7.03
2023-04-06T19:10:15.170Z,6.03
2023-04-06T19:12:43.161Z,7.17
2023-04-06T19:15:10.611Z,7.07
2023-04-06T19:17:38.094Z,9.97
2023-04-06T19:20:05.519Z,7.37
2023-04-06T19:22:34.890Z,8.43
2023-04-06T19:25:02.065Z,6.97
2023-04-06T19:27:29.236Z,6.57
2023-04-06T19:29:56.606Z,6.33
2023-04-06T19:32:25.650Z,8.13
2023-04-06T19:34:52.904Z,6.80
2023-04-06T19:37:20.086Z,6.47
2023-04-06T19:39:47.787Z,7.07
2023-04-06T19:42:21.612Z,7.80
2023-04-06T19:44:49.073Z,8.70
2023-04-06T19:47:16.393Z,6.90
2023-04-06T19:49:43.697Z,7.53
2023-04-06T19:52:11.567Z,8.43
2023-04-06T19:54:39.768Z,6.70
2023-04-06T19:57:06.953Z,7.67
2023-04-06T19:59:36.887Z,13.00
2023-04-06T20:02:04.135Z,12.50
2023-04-06T20:04:31.379Z,13.27
2023-04-06T20:06:58.732Z,11.07
2023-04-06T20:09:26.056Z,10.57
2023-04-06T20:11:54.183Z,7.43
2023-04-06T20:14:22.837Z,7.90
2023-04-06T20:16:50.906Z,8.20
2023-04-06T20:19:18.318Z,8.60
2023-04-06T20:21:46.580Z,7.90
2023-04-06T20:24:13.731Z,10.00
2023-04-06T20:26:40.965Z,7.63
2023-04-06T20:29:08.198Z,11.27
2023-04-06T20:31:35.469Z,8.13
2023-04-06T20:34:03.216Z,7.73
2023-04-06T20:36:32.461Z,8.97
2023-04-06T20:38:59.608Z,10.20
2023-04-06T20:41:26.767Z,6.53
2023-04-06T20:43:53.996Z,7.13
2023-04-06T20:46:21.279Z,7.03
2023-04-06T20:48:48.419Z,6.07
2023-04-06T20:51:25.562Z,6.27
2023-04-06T20:53:52.951Z,8.70
2023-04-06T20:56:21.828Z,8.97
2023-04-06T20:58:49.317Z,6.82
2023-04-06T21:01:16.961Z,5.70
2023-04-06T21:03:44.597Z,5.57
2023-04-06T21:06:11.953Z,6.60
2023-04-06T21:08:39.509Z,7.80
2023-04-06T21:11:07.157Z,6.00
2023-04-06T21:13:35.703Z,5.47
2023-04-06T21:16:03.384Z,5.33
2023-04-06T21:18:31.885Z,5.70
2023-04-06T21:20:59.273Z,5.67
2023-04-06T21:23:26.475Z,5.00
2023-04-06T21:25:56.955Z,5.10
2023-04-06T21:28:25.133Z,6.30
2023-04-06T21:30:53.050Z,7.27
2023-04-06T21:33:20.506Z,6.67
2023-04-06T21:35:47.681Z,5.70
2023-04-06T21:38:14.816Z,5.27
2023-04-06T21:40:41.976Z,7.30
2023-04-06T21:43:09.175Z,6.13
2023-04-06T21:45:36.368Z,6.57
2023-04-06T21:48:03.659Z,5.43
2023-04-06T21:50:30.935Z,6.53
2023-04-06T21:52:58.122Z,6.57
2023-04-06T21:55:25.553Z,5.60
2023-04-06T21:57:52.689Z,7.33
2023-04-06T22:00:20.051Z,5.93
2023-04-06T22:02:47.571Z,6.37
2023-04-06T22:05:15.016Z,5.60
2023-04-06T22:07:42.481Z,5.67
2023-04-06T22:10:09.650Z,6.17
2023-04-06T22:12:36.849Z,4.93
2023-04-06T22:15:04.146Z,6.10
2023-04-06T22:17:31.704Z,4.97
2023-04-06T22:19:58.856Z,6.23
2023-04-06T22:22:26.052Z,5.60
2023-04-06T22:24:53.250Z,5.67
2023-04-06T22:27:20.625Z,5.40
2023-04-06T22:29:47.806Z,5.50
2023-04-06T22:32:14.980Z,5.10
2023-04-06T22:34:42.199Z,5.20
2023-04-06T22:37:09.496Z,5.77
2023-04-06T22:39:36.719Z,5.13
2023-04-06T22:42:05.708Z,7.33
2023-04-06T22:44:32.881Z,4.90
2023-04-06T22:47:00.058Z,6.40
2023-04-06T22:49:27.340Z,5.50
2023-04-06T22:51:54.475Z,7.37
2023-04-06T22:54:21.786Z,5.90
2023-04-06T22:56:49.134Z,5.03
2023-04-06T22:59:16.431Z,7.00
2023-04-06T23:01:43.676Z,4.93
2023-04-06T23:04:11.092Z,5.50
2023-04-06T23:06:38.348Z,5.23
2023-04-06T23:09:05.697Z,5.43
2023-04-06T23:11:32.866Z,6.60
2023-04-06T23:14:00.011Z,6.00
2023-04-06T23:16:27.537Z,8.10
2023-04-06T23:18:54.752Z,5.47
2023-04-06T23:21:21.876Z,5.67
2023-04-06T23:23:49.048Z,6.60
2023-04-06T23:26:16.201Z,6.63
2023-04-06T23:28:43.341Z,6.00
2023-04-06T23:31:10.509Z,5.00
2023-04-06T23:33:37.633Z,6.13
2023-04-06T23:36:04.900Z,5.27
2023-04-06T23:38:32.098Z,8.03
2023-04-06T23:40:59.209Z,9.00
2023-04-06T23:43:26.556Z,6.90
2023-04-06T23:45:53.854Z,7.27
2023-04-06T23:48:21.249Z,6.97
2023-04-06T23:50:48.414Z,6.47
2023-04-06T23:53:15.530Z,6.07
2023-04-06T23:55:42.667Z,6.27
2023-04-06T23:58:09.819Z,6.30
